Time;durP1;ratioP1;P1;durP2;ratioP2;P2;SDS_P1;SDS_P2;PMS_P1;PMS_P2;Temp;Humidity;BMP_temperature;BMP_pressure;BME280_temperature;BME280_humidity;BME280_pressure;Samples;Min_cycle;Max_cycle;Signal;HPM_P1;HPM_P2
2023/10/16 00:01:15;;;;;;;;;;;7.60;99.90;;;;;;5134076;27;20271;-47
2023/10/16 00:03:41;;;;;;;;;;;7.60;99.90;;;;;;5133987;27;19908;-45
2023/10/16 00:06:07;;;;;;;;;;;7.60;99.90;;;;;;5125562;27;19924;-47
2023/10/16 00:08:34;;;;;;;;;;;7.60;99.90;;;;;;5113234;27;20061;-45
2023/10/16 00:11:03;;;;;;;;;;;7.60;99.90;;;;;;5116708;27;19911;-45
2023/10/16 00:13:29;;;;;;;;;;;7.60;99.90;;;;;;5120827;27;20358;-45
2023/10/16 00:15:55;;;;;;;;;;;7.60;99.90;;;;;;5126292;27;20432;-45
2023/10/16 00:18:24;;;;;;;;;;;7.60;99.90;;;;;;5113463;28;19918;-45
2023/10/16 00:20:51;;;;;;;;;;;7.50;99.90;;;;;;5112284;28;20340;-45
2023/10/16 00:23:17;;;;;;;;;;;7.50;99.90;;;;;;5115417;28;19912;-48
2023/10/16 00:25:43;;;;;;;;;;;7.50;99.90;;;;;;5129669;27;19923;-45
2023/10/16 00:28:09;;;;;;;;;;;7.50;99.90;;;;;;5133622;28;19914;-46
2023/10/16 00:30:37;;;;;;;;;;;7.50;99.90;;;;;;5133620;28;19907;-47
2023/10/16 00:33:06;;;;;;;;;;;7.50;99.90;;;;;;5119499;28;19912;-46
2023/10/16 00:35:31;;;;;;;;;;;7.50;99.90;;;;;;5113191;28;19912;-45
2023/10/16 00:37:58;;;;;;;;;;;7.50;99.90;;;;;;5133357;27;19931;-45
2023/10/16 00:40:31;;;;;;;;;;;7.50;99.90;;;;;;5130752;28;19911;-45
2023/10/16 00:43:10;;;;;;;;;;;7.50;99.90;;;;;;5133486;27;20461;-45
2023/10/16 00:45:45;;;;;;;;;;;7.50;99.90;;;;;;5135863;27;19923;-45
2023/10/16 00:48:15;;;;;;;;;;;7.50;99.90;;;;;;5136480;27;19913;-46
2023/10/16 00:50:42;;;;;;;;;;;7.50;99.90;;;;;;5135732;27;19911;-47
2023/10/16 00:53:08;;;;;;;;;;;7.50;99.90;;;;;;5136788;27;20008;-45
2023/10/16 00:55:34;;;;;;;;;;;7.50;99.90;;;;;;5132285;27;20009;-44
2023/10/16 00:58:00;;;;;;;;;;;7.50;99.90;;;;;;5137684;27;20061;-44
2023/10/16 01:00:26;;;;;;;;;;;7.50;99.90;;;;;;5134616;27;20411;-47
2023/10/16 01:02:52;;;;;;;;;;;7.60;99.90;;;;;;5137389;27;19914;-47
2023/10/16 01:05:23;;;;;;;;;;;7.60;99.90;;;;;;5137357;27;19933;-47
2023/10/16 01:07:49;;;;;;;;;;;7.60;99.90;;;;;;5135457;27;19968;-46
2023/10/16 01:10:15;;;;;;;;;;;7.60;99.90;;;;;;5135507;27;20010;-46
2023/10/16 01:12:54;;;;;;;;;;;7.70;99.90;;;;;;5137298;27;19908;-46
2023/10/16 01:15:20;;;;;;;;;;;7.70;99.90;;;;;;5137465;27;19915;-45
2023/10/16 01:17:46;;;;;;;;;;;7.70;99.90;;;;;;5137149;27;19978;-46
2023/10/16 01:20:12;;;;;;;;;;;7.60;99.90;;;;;;5127406;27;20354;-45
2023/10/16 01:22:38;;;;;;;;;;;7.60;99.90;;;;;;5123910;27;19918;-45
2023/10/16 01:25:08;;;;;;;;;;;7.60;99.90;;;;;;5126177;27;19916;-46
2023/10/16 01:27:37;;;;;;;;;;;7.60;99.90;;;;;;5115548;27;20049;-46
2023/10/16 01:30:05;;;;;;;;;;;7.60;99.90;;;;;;5098152;28;19961;-47
2023/10/16 01:32:31;;;;;;;;;;;7.50;99.90;;;;;;5116342;28;20423;-46
2023/10/16 01:34:59;;;;;;;;;;;7.50;99.90;;;;;;5132215;27;19915;-45
2023/10/16 01:37:25;;;;;;;;;;;7.50;99.90;;;;;;5134130;27;19992;-45
2023/10/16 01:39:54;;;;;;;;;;;7.50;99.90;;;;;;5121767;28;19951;-45
2023/10/16 01:42:20;;;;;;;;;;;7.50;99.90;;;;;;5114973;28;20428;-48
2023/10/16 01:44:46;;;;;;;;;;;7.50;99.90;;;;;;5114791;28;19931;-44
2023/10/16 01:47:17;;;;;;;;;;;7.50;99.90;;;;;;5114849;28;20010;-45
2023/10/16 01:49:44;;;;;;;;;;;7.50;99.90;;;;;;5114915;28;19908;-48
2023/10/16 01:52:12;;;;;;;;;;;7.60;99.90;;;;;;5113728;28;20066;-46
2023/10/16 01:54:38;;;;;;;;;;;7.60;99.90;;;;;;5121314;27;19926;-46
2023/10/16 01:57:10;;;;;;;;;;;7.60;99.90;;;;;;5114868;28;20350;-45
2023/10/16 01:59:40;;;;;;;;;;;7.60;99.90;;;;;;5114864;28;19919;-46
2023/10/16 02:02:05;;;;;;;;;;;7.60;99.90;;;;;;5114781;28;20325;-45
2023/10/16 02:04:31;;;;;;;;;;;7.60;99.90;;;;;;5114681;28;19908;-45
2023/10/16 02:06:56;;;;;;;;;;;7.60;99.90;;;;;;5116992;28;20617;-44
2023/10/16 02:09:24;;;;;;;;;;;7.70;99.90;;;;;;5130536;28;19911;-47
2023/10/16 02:11:50;;;;;;;;;;;7.70;99.90;;;;;;5114425;28;19908;-46
2023/10/16 02:14:16;;;;;;;;;;;7.70;99.90;;;;;;5114533;28;19908;-46
2023/10/16 02:16:41;;;;;;;;;;;7.70;99.90;;;;;;5114277;28;19962;-46
2023/10/16 02:19:07;;;;;;;;;;;7.70;99.90;;;;;;5113643;28;20003;-45
2023/10/16 02:21:33;;;;;;;;;;;7.70;99.90;;;;;;5114657;28;19907;-47
2023/10/16 02:24:03;;;;;;;;;;;7.70;99.90;;;;;;5126230;28;20416;-45
2023/10/16 02:26:30;;;;;;;;;;;7.80;99.90;;;;;;5133181;28;19941;-48
2023/10/16 02:28:58;;;;;;;;;;;7.80;99.90;;;;;;5134615;28;19908;-46
2023/10/16 02:31:24;;;;;;;;;;;7.80;99.90;;;;;;5134644;28;19911;-46
2023/10/16 02:34:02;;;;;;;;;;;7.80;99.90;;;;;;5124356;28;19918;-46
2023/10/16 02:36:29;;;;;;;;;;;7.80;99.90;;;;;;5048236;28;1754450;-47
2023/10/16 02:38:55;;;;;;;;;;;7.80;99.90;;;;;;5109525;28;20053;-46
2023/10/16 02:41:21;;;;;;;;;;;7.80;99.90;;;;;;5112494;28;19915;-45
2023/10/16 02:43:47;;;;;;;;;;;7.80;99.90;;;;;;5114948;28;19915;-46
2023/10/16 02:46:12;;;;;;;;;;;7.70;99.90;;;;;;5114937;28;19915;-47
2023/10/16 02:48:41;;;;;;;;;;;7.70;99.90;;;;;;5114938;28;20262;-46
2023/10/16 02:51:07;;;;;;;;;;;7.70;99.90;;;;;;5114958;28;20320;-46
2023/10/16 02:53:34;;;;;;;;;;;7.60;99.90;;;;;;5099027;28;19912;-45
2023/10/16 02:56:08;;;;;;;;;;;7.60;99.90;;;;;;5104637;28;20342;-45
2023/10/16 02:58:37;;;;;;;;;;;7.60;99.90;;;;;;5114896;28;20203;-48
2023/10/16 03:01:07;;;;;;;;;;;7.60;99.90;;;;;;5114713;28;19911;-45
2023/10/16 03:03:33;;;;;;;;;;;7.50;99.90;;;;;;5114610;28;20286;-45
2023/10/16 03:05:59;;;;;;;;;;;7.60;99.90;;;;;;5113702;28;19927;-48
2023/10/16 03:08:30;;;;;;;;;;;7.60;99.90;;;;;;5112604;28;19918;-45
2023/10/16 03:10:57;;;;;;;;;;;7.60;99.90;;;;;;5106043;28;19961;-45
2023/10/16 03:13:24;;;;;;;;;;;7.60;99.90;;;;;;5094055;28;20347;-46
2023/10/16 03:15:58;;;;;;;;;;;7.60;99.90;;;;;;5094010;28;19915;-49
2023/10/16 03:18:23;;;;;;;;;;;7.70;99.90;;;;;;5094007;28;20431;-45
2023/10/16 03:21:01;;;;;;;;;;;7.60;99.90;;;;;;5093883;28;19962;-46
2023/10/16 03:23:28;;;;;;;;;;;7.70;99.90;;;;;;5093049;28;19908;-47
2023/10/16 03:25:55;;;;;;;;;;;7.70;99.90;;;;;;5098823;28;19931;-47
2023/10/16 03:28:21;;;;;;;;;;;7.60;99.90;;;;;;5114254;28;19915;-46
2023/10/16 03:30:47;;;;;;;;;;;7.60;99.90;;;;;;5114024;28;19907;-46
2023/10/16 03:33:15;;;;;;;;;;;7.60;99.90;;;;;;5114236;28;19961;-47
2023/10/16 03:35:44;;;;;;;;;;;7.50;99.90;;;;;;5111973;28;19998;-46
2023/10/16 03:38:11;;;;;;;;;;;7.50;99.90;;;;;;5129909;27;19926;-45
2023/10/16 03:40:36;;;;;;;;;;;7.50;99.90;;;;;;5132459;27;20478;-46
2023/10/16 03:43:02;;;;;;;;;;;7.50;99.90;;;;;;5134383;27;19961;-47
2023/10/16 03:45:28;;;;;;;;;;;7.50;99.90;;;;;;5134575;27;19912;-45
2023/10/16 03:47:54;;;;;;;;;;;7.60;99.90;;;;;;5134330;27;19908;-48
2023/10/16 03:50:34;;;;;;;;;;;7.60;99.90;;;;;;5132210;27;20355;-47
2023/10/16 03:53:00;;;;;;;;;;;7.60;99.90;;;;;;5132327;27;20340;-46
2023/10/16 03:55:26;;;;;;;;;;;7.60;99.90;;;;;;5134118;27;19918;-47
2023/10/16 03:57:52;;;;;;;;;;;7.70;99.90;;;;;;5132131;27;19922;-47
2023/10/16 04:00:18;;;;;;;;;;;7.70;99.90;;;;;;5133232;27;19957;-45
2023/10/16 04:02:47;;;;;;;;;;;7.80;99.90;;;;;;5133973;27;20415;-44
2023/10/16 04:05:30;;;;;;;;;;;7.80;99.90;;;;;;5134020;27;19907;-47
2023/10/16 04:07:58;;;;;;;;;;;7.90;99.90;;;;;;5114704;27;20002;-46
2023/10/16 04:10:28;;;;;;;;;;;7.90;99.90;;;;;;5113566;28;19962;-45
2023/10/16 04:12:54;;;;;;;;;;;8.00;99.90;;;;;;5127164;27;19912;-47
2023/10/16 04:18:18;;;;;;;;;;;8.00;99.90;;;;;;5134209;27;20396;-48
2023/10/16 04:20:44;;;;;;;;;;;8.00;99.90;;;;;;5131946;27;19915;-47
2023/10/16 04:23:37;;;;;;;;;;;8.00;99.90;;;;;;5113399;28;19912;-45
2023/10/16 04:26:29;;;;;;;;;;;8.10;99.90;;;;;;5112601;28;19923;-46
2023/10/16 04:31:44;;;;;;;;;;;8.10;99.90;;;;;;5113384;28;19915;-45
2023/10/16 04:36:54;;;;;;;;;;;8.10;99.90;;;;;;5112082;28;19927;-46
2023/10/16 04:45:00;;;;;;;;;;;8.00;99.90;;;;;;5113126;28;19995;-46
2023/10/16 04:47:41;;;;;;;;;;;7.90;99.90;;;;;;5129294;28;19930;-46
2023/10/16 04:50:09;;;;;;;;;;;7.90;99.90;;;;;;5133540;28;19960;-47
2023/10/16 05:00:56;;;;;;;;;;;7.80;99.90;;;;;;5132525;28;20020;-47
2023/10/16 05:03:23;;;;;;;;;;;7.90;99.90;;;;;;5133512;28;19911;-47
2023/10/16 05:06:05;;;;;;;;;;;7.90;99.90;;;;;;5131321;28;20038;-47
2023/10/16 05:11:27;;;;;;;;;;;8.00;99.90;;;;;;5133834;28;19934;-45
2023/10/16 05:14:04;;;;;;;;;;;7.90;99.90;;;;;;5116737;28;19908;-47
2023/10/16 05:16:35;;;;;;;;;;;7.90;99.90;;;;;;5112651;28;19919;-46
2023/10/16 05:19:03;;;;;;;;;;;7.80;99.90;;;;;;5112792;28;19912;-46
2023/10/16 06:16:20;;;;;;;;;;;7.50;99.90;;;;;;5136527;27;19932;-46
2023/10/16 06:18:47;;;;;;;;;;;7.50;99.90;;;;;;5120504;27;19916;-46
2023/10/16 06:21:15;;;;;;;;;;;7.50;99.90;;;;;;5124635;27;20251;-45
2023/10/16 06:23:49;;;;;;;;;;;7.50;99.90;;;;;;5135084;27;19976;-46
2023/10/16 06:26:15;;;;;;;;;;;7.60;99.90;;;;;;5135949;27;19923;-47
2023/10/16 06:28:47;;;;;;;;;;;7.50;99.90;;;;;;5135823;27;19908;-48
2023/10/16 06:31:23;;;;;;;;;;;7.60;99.90;;;;;;5134840;27;20279;-48
2023/10/16 06:33:52;;;;;;;;;;;7.60;99.90;;;;;;5135772;27;19980;-46
2023/10/16 06:36:20;;;;;;;;;;;7.60;99.90;;;;;;5133797;27;19949;-47
2023/10/16 06:38:46;;;;;;;;;;;7.70;99.90;;;;;;5135586;27;19986;-49
2023/10/16 06:41:15;;;;;;;;;;;7.70;99.90;;;;;;5132538;27;19912;-48
2023/10/16 06:43:41;;;;;;;;;;;7.80;99.90;;;;;;5122012;27;19914;-45
2023/10/16 06:46:09;;;;;;;;;;;7.80;99.90;;;;;;5114915;28;20026;-46
2023/10/16 06:48:37;;;;;;;;;;;7.90;99.90;;;;;;5117410;27;19918;-46
2023/10/16 06:51:14;;;;;;;;;;;7.90;99.90;;;;;;5115021;27;19958;-48
2023/10/16 06:53:40;;;;;;;;;;;8.00;99.90;;;;;;5114853;28;19935;-46
2023/10/16 06:56:05;;;;;;;;;;;8.00;99.90;;;;;;5114872;28;20134;-47
2023/10/16 06:58:34;;;;;;;;;;;8.10;99.90;;;;;;5115153;27;19911;-47
2023/10/16 07:01:01;;;;;;;;;;;8.20;99.90;;;;;;5122679;27;19915;-46
2023/10/16 07:03:28;;;;;;;;;;;8.30;99.90;;;;;;5133677;27;20326;-46
2023/10/16 07:05:53;;;;;;;;;;;8.30;99.90;;;;;;5135055;27;19915;-47
2023/10/16 07:08:19;;;;;;;;;;;8.40;99.90;;;;;;5135092;27;19915;-46
2023/10/16 07:10:49;;;;;;;;;;;8.50;99.90;;;;;;5128693;27;19934;-49
2023/10/16 07:13:27;;;;;;;;;;;8.50;99.90;;;;;;5135037;27;20491;-47
2023/10/16 07:15:56;;;;;;;;;;;8.60;99.90;;;;;;5129424;27;19912;-47
2023/10/16 07:18:24;;;;;;;;;;;8.70;99.90;;;;;;5129313;27;19942;-47
2023/10/16 07:21:00;;;;;;;;;;;8.70;99.90;;;;;;5114785;27;19915;-46
2023/10/16 07:23:29;;;;;;;;;;;8.70;99.90;;;;;;5135014;27;19912;-49
2023/10/16 07:25:56;;;;;;;;;;;8.70;99.90;;;;;;5132340;27;19924;-49
2023/10/16 07:28:22;;;;;;;;;;;8.80;99.90;;;;;;5122239;27;19954;-47
2023/10/16 07:30:47;;;;;;;;;;;8.80;99.90;;;;;;5116002;27;19947;-50
2023/10/16 07:33:16;;;;;;;;;;;8.80;99.90;;;;;;5114607;27;20274;-50
2023/10/16 07:35:45;;;;;;;;;;;8.90;99.90;;;;;;5115817;27;20392;-48
2023/10/16 07:38:11;;;;;;;;;;;8.90;99.90;;;;;;5134322;27;19919;-48
2023/10/16 07:40:37;;;;;;;;;;;9.00;99.90;;;;;;5130413;27;20276;-48
2023/10/16 07:43:03;;;;;;;;;;;9.00;99.90;;;;;;5123004;27;19912;-48
2023/10/16 07:45:32;;;;;;;;;;;9.00;99.90;;;;;;5122789;27;19916;-47
2023/10/16 07:48:07;;;;;;;;;;;9.10;99.90;;;;;;5130564;27;19915;-47
2023/10/16 07:50:41;;;;;;;;;;;9.10;99.90;;;;;;5118619;27;20006;-51
2023/10/16 07:53:08;;;;;;;;;;;9.10;99.90;;;;;;5126311;27;19911;-49
2023/10/16 07:55:39;;;;;;;;;;;9.20;99.90;;;;;;5113345;27;20347;-49
2023/10/16 07:58:12;;;;;;;;;;;9.20;99.90;;;;;;5113366;28;19965;-48
2023/10/16 08:00:42;;;;;;;;;;;9.20;99.90;;;;;;5113632;28;19908;-47
2023/10/16 08:03:13;;;;;;;;;;;9.30;99.90;;;;;;5113591;27;19948;-49
2023/10/16 08:05:47;;;;;;;;;;;9.40;99.90;;;;;;5113523;28;20247;-49
2023/10/16 08:08:12;;;;;;;;;;;9.40;99.90;;;;;;5113635;28;19960;-50
2023/10/16 08:10:42;;;;;;;;;;;9.50;99.90;;;;;;5115431;27;19915;-49
2023/10/16 08:13:13;;;;;;;;;;;9.60;99.90;;;;;;5129032;27;19964;-48
2023/10/16 08:15:49;;;;;;;;;;;9.70;99.90;;;;;;5113326;28;19907;-48
2023/10/16 08:18:15;;;;;;;;;;;9.80;99.90;;;;;;5112673;28;19912;-51
2023/10/16 08:21:00;;;;;;;;;;;9.90;99.90;;;;;;5112444;28;20340;-48
2023/10/16 08:23:34;;;;;;;;;;;9.90;99.90;;;;;;5121592;27;19938;-49
2023/10/16 08:26:00;;;;;;;;;;;10.00;99.90;;;;;;5119556;27;20018;-53
2023/10/16 08:28:35;;;;;;;;;;;10.10;99.90;;;;;;5123795;27;19920;-49
2023/10/16 08:31:10;;;;;;;;;;;10.10;99.90;;;;;;5117012;28;19919;-50
2023/10/16 08:33:35;;;;;;;;;;;10.20;99.90;;;;;;5117664;28;19943;-47
2023/10/16 08:36:04;;;;;;;;;;;10.30;99.90;;;;;;5118911;28;19963;-47
2023/10/16 08:38:32;;;;;;;;;;;10.30;99.90;;;;;;5103887;28;19924;-48
2023/10/16 08:41:00;;;;;;;;;;;10.40;99.90;;;;;;5092821;28;19918;-48
2023/10/16 08:43:39;;;;;;;;;;;10.50;99.90;;;;;;5107072;28;19919;-48
2023/10/16 08:46:10;;;;;;;;;;;10.50;99.90;;;;;;5092602;28;19991;-48
2023/10/16 08:48:36;;;;;;;;;;;10.60;99.90;;;;;;5092672;28;19915;-50
2023/10/16 08:51:08;;;;;;;;;;;10.80;99.90;;;;;;5100554;28;19912;-48
2023/10/16 08:53:34;;;;;;;;;;;10.90;99.90;;;;;;5102018;28;19955;-48
2023/10/16 08:56:03;;;;;;;;;;;11.00;99.90;;;;;;5095989;28;19966;-46
2023/10/16 08:58:33;;;;;;;;;;;11.10;99.90;;;;;;5107618;28;19914;-48
2023/10/16 09:00:59;;;;;;;;;;;11.10;99.90;;;;;;5097967;28;19922;-47
2023/10/16 09:03:26;;;;;;;;;;;11.20;99.90;;;;;;5093524;28;19908;-48
2023/10/16 09:05:52;;;;;;;;;;;11.20;99.90;;;;;;5106611;28;19920;-49
2023/10/16 09:08:17;;;;;;;;;;;11.20;99.90;;;;;;5109132;28;20381;-50
2023/10/16 09:10:44;;;;;;;;;;;11.20;99.90;;;;;;5097029;28;19964;-48
2023/10/16 09:13:19;;;;;;;;;;;11.20;99.90;;;;;;5096240;28;19916;-47
2023/10/16 09:15:45;;;;;;;;;;;11.20;99.90;;;;;;5116796;28;19908;-48
2023/10/16 09:18:14;;;;;;;;;;;11.10;99.90;;;;;;5116608;28;19998;-47
2023/10/16 09:20:41;;;;;;;;;;;11.20;99.90;;;;;;5116227;28;19966;-47
2023/10/16 09:23:13;;;;;;;;;;;11.20;99.90;;;;;;5116538;28;20258;-50
2023/10/16 09:25:43;;;;;;;;;;;11.20;99.90;;;;;;5116526;28;19915;-49
2023/10/16 09:28:12;;;;;;;;;;;11.20;99.90;;;;;;5116866;28;19907;-47
2023/10/16 09:30:42;;;;;;;;;;;11.30;99.90;;;;;;5093250;28;20325;-50
2023/10/16 09:33:10;;;;;;;;;;;11.30;99.90;;;;;;5096286;28;20075;-47
2023/10/16 09:35:43;;;;;;;;;;;11.30;99.90;;;;;;5096035;28;19969;-49
2023/10/16 09:38:15;;;;;;;;;;;11.30;99.90;;;;;;5113294;28;19919;-47
2023/10/16 09:40:44;;;;;;;;;;;11.30;99.90;;;;;;5116381;28;19908;-46
2023/10/16 09:43:24;;;;;;;;;;;11.30;99.90;;;;;;5116294;28;19908;-49
2023/10/16 09:45:49;;;;;;;;;;;11.30;99.90;;;;;;5120654;27;19966;-48
2023/10/16 09:48:19;;;;;;;;;;;11.30;99.90;;;;;;5136795;27;19950;-47
2023/10/16 09:50:45;;;;;;;;;;;11.40;99.90;;;;;;5136519;27;20358;-46
2023/10/16 09:53:11;;;;;;;;;;;11.50;99.90;;;;;;5136774;27;19913;-46
2023/10/16 09:55:44;;;;;;;;;;;11.60;99.90;;;;;;5135306;27;20386;-47
2023/10/16 09:58:11;;;;;;;;;;;11.70;99.90;;;;;;5136743;27;20114;-46
2023/10/16 10:00:44;;;;;;;;;;;11.80;99.90;;;;;;5133540;27;20274;-48
2023/10/16 10:03:13;;;;;;;;;;;11.90;99.90;;;;;;5120861;27;20401;-49
2023/10/16 10:05:49;;;;;;;;;;;12.00;99.90;;;;;;5133447;27;19911;-48
2023/10/16 10:08:27;;;;;;;;;;;12.10;99.90;;;;;;5117597;27;20282;-45
2023/10/16 10:11:17;;;;;;;;;;;12.30;99.90;;;;;;5136267;27;19907;-47
2023/10/16 10:14:03;;;;;;;;;;;12.40;99.90;;;;;;5128043;27;19911;-48
2023/10/16 10:16:29;;;;;;;;;;;12.70;99.90;;;;;;5127878;27;19911;-46
2023/10/16 10:19:01;;;;;;;;;;;12.70;99.90;;;;;;5120926;27;19955;-46
2023/10/16 10:21:30;;;;;;;;;;;12.80;99.90;;;;;;5136217;27;19919;-48
2023/10/16 10:24:00;;;;;;;;;;;12.70;99.90;;;;;;5135942;27;19914;-47
2023/10/16 10:26:26;;;;;;;;;;;12.70;99.90;;;;;;5136036;27;19915;-46
2023/10/16 10:29:04;;;;;;;;;;;12.60;99.90;;;;;;5132169;27;19921;-46
2023/10/16 10:31:31;;;;;;;;;;;12.50;99.90;;;;;;5127985;27;19934;-46
2023/10/16 10:33:58;;;;;;;;;;;12.50;99.90;;;;;;5115401;28;19992;-47
2023/10/16 10:36:27;;;;;;;;;;;12.40;99.90;;;;;;5131819;27;20377;-46
2023/10/16 10:39:20;;;;;;;;;;;12.40;99.90;;;;;;5129780;27;19915;-48
2023/10/16 10:41:48;;;;;;;;;;;12.40;99.90;;;;;;5123365;27;21640;-47
2023/10/16 10:44:15;;;;;;;;;;;12.50;99.90;;;;;;5131784;27;19919;-46
2023/10/16 10:46:42;;;;;;;;;;;12.60;99.90;;;;;;5121205;27;20657;-46
2023/10/16 10:49:12;;;;;;;;;;;12.60;99.90;;;;;;5132929;27;19911;-46
2023/10/16 10:51:44;;;;;;;;;;;12.60;99.90;;;;;;5135555;27;20421;-48
2023/10/16 10:54:12;;;;;;;;;;;12.60;99.90;;;;;;5135407;27;19911;-45
2023/10/16 10:56:41;;;;;;;;;;;12.60;99.90;;;;;;5128467;27;19908;-47
2023/10/16 10:59:10;;;;;;;;;;;12.70;99.90;;;;;;5114837;28;20017;-46
2023/10/16 11:01:44;;;;;;;;;;;12.60;99.90;;;;;;5114778;27;20321;-48
2023/10/16 11:04:15;;;;;;;;;;;12.60;99.90;;;;;;5124101;27;19908;-48
2023/10/16 11:06:52;;;;;;;;;;;12.60;99.90;;;;;;5128103;27;20369;-47
2023/10/16 11:09:18;;;;;;;;;;;12.70;99.90;;;;;;5134981;27;20323;-46
2023/10/16 11:11:47;;;;;;;;;;;12.90;99.90;;;;;;5135001;27;19908;-45
2023/10/16 11:14:13;;;;;;;;;;;12.90;99.90;;;;;;5135045;27;19911;-45
2023/10/16 11:16:43;;;;;;;;;;;13.10;99.90;;;;;;5133673;27;19907;-46
2023/10/16 11:19:09;;;;;;;;;;;13.20;99.90;;;;;;5114070;28;20011;-47
2023/10/16 11:21:39;;;;;;;;;;;13.30;99.90;;;;;;5114461;28;20409;-45
2023/10/16 11:24:05;;;;;;;;;;;13.30;99.90;;;;;;5114135;28;20416;-46
2023/10/16 11:26:32;;;;;;;;;;;13.40;99.90;;;;;;5114799;27;20663;-47
2023/10/16 11:29:00;;;;;;;;;;;13.50;99.90;;;;;;5115166;28;19915;-47
2023/10/16 11:31:26;;;;;;;;;;;13.50;99.90;;;;;;5114211;28;20339;-46
2023/10/16 11:34:00;;;;;;;;;;;13.50;99.90;;;;;;5129940;27;19911;-46
2023/10/16 11:36:27;;;;;;;;;;;13.50;99.90;;;;;;5134502;27;20365;-46
2023/10/16 11:39:03;;;;;;;;;;;13.50;99.90;;;;;;5134396;27;19907;-46
2023/10/16 11:41:32;;;;;;;;;;;13.50;99.90;;;;;;5132042;27;19915;-45
2023/10/16 11:44:01;;;;;;;;;;;13.60;99.90;;;;;;5134441;27;19964;-45
2023/10/16 11:46:33;;;;;;;;;;;13.60;99.90;;;;;;5134407;27;19919;-46
2023/10/16 11:51:51;;;;;;;;;;;13.60;99.90;;;;;;5134351;27;19960;-45
2023/10/16 11:54:20;;;;;;;;;;;13.60;99.90;;;;;;5134362;27;19950;-46
2023/10/16 11:56:47;;;;;;;;;;;13.60;99.90;;;;;;5134367;27;19907;-46
2023/10/16 11:59:13;;;;;;;;;;;13.60;99.90;;;;;;5134322;27;19907;-45
2023/10/16 12:01:38;;;;;;;;;;;13.60;99.90;;;;;;5134256;27;19908;-47
2023/10/16 12:04:04;;;;;;;;;;;13.60;99.90;;;;;;5132227;27;19912;-45
2023/10/16 12:06:30;;;;;;;;;;;13.60;99.90;;;;;;5134162;27;20289;-45
2023/10/16 12:08:55;;;;;;;;;;;13.70;99.90;;;;;;5134191;27;20385;-45
2023/10/16 12:11:21;;;;;;;;;;;13.70;99.90;;;;;;5134027;27;19914;-45
2023/10/16 12:13:47;;;;;;;;;;;13.80;99.90;;;;;;5133993;27;19917;-48
2023/10/16 12:16:12;;;;;;;;;;;13.70;99.90;;;;;;5134009;27;19914;-47
2023/10/16 12:18:38;;;;;;;;;;;13.80;99.90;;;;;;5131888;27;20010;-47
2023/10/16 12:21:06;;;;;;;;;;;13.80;99.90;;;;;;5133891;27;19908;-45
2023/10/16 12:23:33;;;;;;;;;;;13.70;99.90;;;;;;5133858;27;19947;-45
2023/10/16 12:26:00;;;;;;;;;;;13.60;99.90;;;;;;5133723;27;19955;-46
2023/10/16 12:28:25;;;;;;;;;;;13.50;99.90;;;;;;5123228;27;19912;-46
2023/10/16 12:30:51;;;;;;;;;;;13.40;99.90;;;;;;5113276;28;19915;-45
2023/10/16 12:33:17;;;;;;;;;;;13.30;99.90;;;;;;5115676;28;20295;-47
2023/10/16 12:35:43;;;;;;;;;;;13.20;99.90;;;;;;5131328;28;19916;-45
2023/10/16 12:38:10;;;;;;;;;;;13.10;99.90;;;;;;5129992;27;19981;-46
2023/10/16 12:40:38;;;;;;;;;;;13.00;99.90;;;;;;5138227;27;19908;-45
2023/10/16 12:43:06;;;;;;;;;;;12.90;99.90;;;;;;5137947;27;19931;-45
2023/10/16 12:45:32;;;;;;;;;;;12.90;99.90;;;;;;5131134;27;19919;-46
2023/10/16 12:47:57;;;;;;;;;;;12.90;99.90;;;;;;5117523;28;19944;-46
2023/10/16 12:50:27;;;;;;;;;;;12.80;99.90;;;;;;5135772;27;19912;-46
2023/10/16 12:52:56;;;;;;;;;;;12.90;99.90;;;;;;5135987;27;19912;-45
2023/10/16 12:55:23;;;;;;;;;;;12.90;99.90;;;;;;5137666;27;19930;-46
2023/10/16 12:57:52;;;;;;;;;;;13.00;99.90;;;;;;5137783;27;19908;-45
2023/10/16 13:00:19;;;;;;;;;;;13.00;99.90;;;;;;5137451;27;19907;-45
2023/10/16 13:02:45;;;;;;;;;;;13.20;99.90;;;;;;5137505;27;19915;-46
2023/10/16 13:05:14;;;;;;;;;;;13.30;99.90;;;;;;5123343;27;20259;-46
2023/10/16 13:07:43;;;;;;;;;;;13.40;99.90;;;;;;5117095;27;20370;-45
2023/10/16 13:10:09;;;;;;;;;;;13.60;99.90;;;;;;5137484;27;19911;-45
2023/10/16 13:12:36;;;;;;;;;;;13.70;99.90;;;;;;5135922;27;19908;-46
2023/10/16 13:15:03;;;;;;;;;;;13.80;99.90;;;;;;5130525;27;19912;-45
2023/10/16 13:17:29;;;;;;;;;;;13.90;99.90;;;;;;5116771;28;20386;-45
2023/10/16 13:19:55;;;;;;;;;;;14.10;99.90;;;;;;5127225;27;19954;-45
2023/10/16 13:22:20;;;;;;;;;;;14.10;99.90;;;;;;5137342;27;19954;-46
2023/10/16 13:24:46;;;;;;;;;;;14.10;99.90;;;;;;5137161;27;20316;-46
2023/10/16 13:27:11;;;;;;;;;;;14.10;99.90;;;;;;5137165;27;19919;-46
2023/10/16 13:29:39;;;;;;;;;;;14.00;99.90;;;;;;5137007;27;19911;-46
2023/10/16 13:32:09;;;;;;;;;;;13.90;99.90;;;;;;5137213;27;19919;-46
2023/10/16 13:34:36;;;;;;;;;;;13.80;99.90;;;;;;5134718;27;19907;-45
2023/10/16 13:37:08;;;;;;;;;;;13.70;99.90;;;;;;5135036;27;20139;-45
2023/10/16 13:39:38;;;;;;;;;;;13.60;99.90;;;;;;5137042;27;20006;-45
2023/10/16 13:42:08;;;;;;;;;;;13.50;99.90;;;;;;5136776;27;19908;-47
2023/10/16 13:44:35;;;;;;;;;;;13.40;99.90;;;;;;5136830;27;20341;-46
2023/10/16 13:47:04;;;;;;;;;;;13.20;99.90;;;;;;5136635;27;19915;-46
2023/10/16 13:49:31;;;;;;;;;;;13.10;99.90;;;;;;5134982;27;19912;-46
2023/10/16 13:51:57;;;;;;;;;;;13.10;99.90;;;;;;5135961;27;19907;-46
2023/10/16 13:54:23;;;;;;;;;;;13.00;99.90;;;;;;5136615;27;19919;-45
2023/10/16 13:56:49;;;;;;;;;;;13.00;99.90;;;;;;5136542;27;20002;-47
2023/10/16 13:59:18;;;;;;;;;;;13.00;99.90;;;;;;5136698;27;19999;-47
2023/10/16 14:01:43;;;;;;;;;;;13.00;99.90;;;;;;5135434;27;20289;-45
2023/10/16 14:04:16;;;;;;;;;;;13.10;99.90;;;;;;5134730;27;19911;-47
2023/10/16 14:06:51;;;;;;;;;;;13.20;99.90;;;;;;5136505;27;19927;-46
2023/10/16 14:09:20;;;;;;;;;;;13.40;99.90;;;;;;5136328;27;19907;-45
2023/10/16 14:11:49;;;;;;;;;;;13.70;99.90;;;;;;5136404;27;19999;-46
2023/10/16 14:14:21;;;;;;;;;;;14.00;99.90;;;;;;5136390;27;19912;-46
2023/10/16 14:16:51;;;;;;;;;;;14.10;99.90;;;;;;5136295;27;19994;-46
2023/10/16 14:19:26;;;;;;;;;;;14.30;99.90;;;;;;5131013;27;19965;-47
2023/10/16 14:21:52;;;;;;;;;;;14.40;99.90;;;;;;5125345;27;19965;-46
2023/10/16 14:24:24;;;;;;;;;;;14.40;99.90;;;;;;5120026;27;19911;-45
2023/10/16 14:26:57;;;;;;;;;;;14.40;99.90;;;;;;5121927;27;19920;-45
2023/10/16 14:29:23;;;;;;;;;;;14.40;99.90;;;;;;5129127;27;19912;-45
2023/10/16 14:31:51;;;;;;;;;;;14.40;99.90;;;;;;5120691;27;19918;-45
2023/10/16 14:34:22;;;;;;;;;;;14.40;99.90;;;;;;5119326;27;19911;-47
2023/10/16 14:36:48;;;;;;;;;;;14.30;99.90;;;;;;5117445;27;19923;-45
2023/10/16 14:39:14;;;;;;;;;;;14.30;99.90;;;;;;5125518;27;20392;-44
2023/10/16 14:41:42;;;;;;;;;;;14.30;99.90;;;;;;5123391;27;19995;-47
2023/10/16 14:44:09;;;;;;;;;;;14.30;99.90;;;;;;5122309;27;19908;-46
2023/10/16 14:46:36;;;;;;;;;;;14.30;99.90;;;;;;5127732;27;19943;-45
2023/10/16 14:49:02;;;;;;;;;;;14.30;99.90;;;;;;5132936;27;19914;-45
2023/10/16 14:51:30;;;;;;;;;;;14.30;99.90;;;;;;5128312;27;19922;-46
2023/10/16 14:53:55;;;;;;;;;;;14.30;99.90;;;;;;5135283;27;20289;-45
2023/10/16 14:56:21;;;;;;;;;;;14.40;99.90;;;;;;5135368;27;19907;-44
2023/10/16 14:58:47;;;;;;;;;;;14.40;99.90;;;;;;5124876;27;19955;-46
2023/10/16 15:01:16;;;;;;;;;;;14.50;99.90;;;;;;5117647;27;20430;-45
2023/10/16 15:03:45;;;;;;;;;;;14.60;99.90;;;;;;5112667;27;19914;-44
2023/10/16 15:06:12;;;;;;;;;;;14.60;99.90;;;;;;5128073;27;19926;-45
2023/10/16 15:08:41;;;;;;;;;;;14.50;99.90;;;;;;5135161;27;19990;-46
2023/10/16 15:11:10;;;;;;;;;;;14.30;99.90;;;;;;5135194;27;19999;-45
2023/10/16 15:13:39;;;;;;;;;;;14.20;99.90;;;;;;5128122;27;19976;-45
2023/10/16 15:16:06;;;;;;;;;;;14.00;99.90;;;;;;5135006;27;19915;-45
2023/10/16 15:18:33;;;;;;;;;;;13.90;99.90;;;;;;5119297;27;19951;-45
2023/10/16 15:21:00;;;;;;;;;;;13.80;99.90;;;;;;5117547;27;20437;-45
2023/10/16 15:23:26;;;;;;;;;;;13.60;99.90;;;;;;5114269;28;20415;-45
2023/10/16 15:25:52;;;;;;;;;;;13.50;99.90;;;;;;5122441;27;19907;-45
2023/10/16 15:28:17;;;;;;;;;;;13.40;99.90;;;;;;5132582;27;19964;-46
2023/10/16 15:30:44;;;;;;;;;;;13.30;99.90;;;;;;5131934;27;19908;-45
2023/10/16 15:33:09;;;;;;;;;;;13.20;99.90;;;;;;5128471;27;19920;-46
2023/10/16 15:35:37;;;;;;;;;;;13.10;99.90;;;;;;5121717;27;19918;-45
2023/10/16 15:38:03;;;;;;;;;;;13.10;99.90;;;;;;5117751;27;19973;-47
2023/10/16 15:40:28;;;;;;;;;;;13.00;99.90;;;;;;5130067;27;19911;-46
2023/10/16 15:42:59;;;;;;;;;;;12.90;99.90;;;;;;5131283;27;19918;-45
2023/10/16 15:45:25;;;;;;;;;;;12.80;99.90;;;;;;5127944;27;20326;-45
2023/10/16 15:47:52;;;;;;;;;;;12.80;99.90;;;;;;5129458;27;19920;-45
2023/10/16 15:50:17;;;;;;;;;;;12.80;99.90;;;;;;5120516;27;19922;-45
2023/10/16 15:52:46;;;;;;;;;;;12.70;99.90;;;;;;5133712;27;20294;-46
2023/10/16 15:55:17;;;;;;;;;;;12.60;99.90;;;;;;5133944;27;19930;-45